F/V Les Antilles — FGPP — position and weather

sailwx.info

Track history (hours):
 
Tides and Currents Weather Stations Pressure Air Temp Water Temp Dewpoint Dewpoint Depression Visibility Wind Speed Wind Dir Waves Ship Positions

F/V Les Antilles

Last reported at 2017-Nov-24 00:11 UTC. Time now 2017-Nov-24 07:41 UTC.
Position N 47°26' W 004°17'.

Length 15 m.

MMSI: 228905000.

Date/timePositionNaut miles runAvg speedWind from/ knotsBaromVisibWave heightAir tempDewpointWater temp
2017-Nov-24 00:11N 47°26' W 004°17'16 1.3
2017-Nov-23 11:44N 47°41' W 004°10'5 5.7
2017-Nov-23 10:48N 47°46' W 004°09'4 8.5
2017-Nov-23 10:23N 47°50' W 004°09'1 1.9
2017-Nov-23 09:38N 47°50' W 004°10'0 0.0
2017-Nov-23 08:38N 47°50' W 004°10'0 0.0
2017-Nov-23 07:38N 47°50' W 004°10'0 0.0
2017-Nov-23 05:38N 47°50' W 004°10'0 0.0
2017-Nov-23 04:58N 47°50' W 004°10'  
2017-Nov-17 19:00N 47°50' W 004°09'7 8.0
2017-Nov-17 18:07N 47°43' W 004°09'1 8.5
2017-Nov-17 17:58N 47°42' W 004°09'20 3.3
2017-Nov-17 12:03N 47°22' W 004°11'0 3.4
2017-Nov-17 12:00N 47°22' W 004°11'11 1.9
2017-Nov-17 06:20N 47°16' W 004°23'2 3.3
2017-Nov-17 05:51N 47°17' W 004°21'1 3.2
2017-Nov-17 05:28N 47°18' W 004°22'2 3.3
2017-Nov-17 05:00N 47°19' W 004°23'2 3.5
2017-Nov-17 04:27N 47°21' W 004°22'2 3.2
2017-Nov-17 03:50N 47°21' W 004°19'1 3.1
2017-Nov-17 03:26N 47°20' W 004°18'1 2.9
2017-Nov-17 02:59N 47°19' W 004°19'2 3.1
2017-Nov-17 02:29N 47°17' W 004°20'2 2.5
2017-Nov-17 01:44N 47°16' W 004°22'2 3.2
2017-Nov-17 01:15N 47°15' W 004°24'2 3.2
2017-Nov-17 00:38N 47°14' W 004°25'0 3.3
2017-Nov-17 00:29N 47°13' W 004°26'2 3.3
2017-Nov-16 23:56N 47°13' W 004°29'2 3.3
2017-Nov-16 23:27N 47°11' W 004°30'12 1.6
2017-Nov-16 16:04N 47°06' W 004°45'1 3.3
2017-Nov-16 15:51N 47°07' W 004°46'5 1.0
2017-Nov-16 11:04N 47°07' W 004°39'4 0.7
2017-Nov-16 06:12N 47°07' W 004°45'1 3.6
2017-Nov-16 05:59N 47°06' W 004°45'1 2.4
2017-Nov-16 05:30N 47°07' W 004°43'2 3.8
2017-Nov-16 04:56N 47°09' W 004°41'2 3.5
2017-Nov-16 04:21N 47°10' W 004°39'4 3.4
2017-Nov-16 03:07N 47°10' W 004°33'1 2.9
2017-Nov-16 02:47N 47°09' W 004°33'2 2.6
2017-Nov-16 02:09N 47°08' W 004°31'1 3.4
2017-Nov-16 01:44N 47°09' W 004°30'1 3.4
2017-Nov-16 01:27N 47°10' W 004°30'1 2.7
2017-Nov-16 01:01N 47°10' W 004°32'1 2.3
2017-Nov-16 00:21N 47°10' W 004°30'2 2.7
2017-Nov-15 23:34N 47°08' W 004°32'1 2.9
2017-Nov-15 23:12N 47°09' W 004°33'5 3.0
2017-Nov-15 21:23N 47°13' W 004°27'1 2.7
2017-Nov-15 20:59N 47°14' W 004°27'1 2.8
2017-Nov-15 20:28N 47°15' W 004°28'2 3.3
2017-Nov-15 19:52N 47°17' W 004°28'0 0.7
2017-Nov-15 19:30N 47°17' W 004°28'2 3.1
2017-Nov-15 18:47N 47°19' W 004°27'1 3.4
2017-Nov-15 18:21N 47°21' W 004°26'5 3.7
2017-Nov-15 17:05N 47°24' W 004°22'2 8.8
2017-Nov-15 16:55N 47°26' W 004°21'4 8.9
2017-Nov-15 16:25N 47°30' W 004°21'4 9.1
2017-Nov-15 15:59N 47°34' W 004°20'4 8.9
2017-Nov-15 15:30N 47°39' W 004°19'5 8.8
2017-Nov-15 14:59N 47°43' W 004°18'4 8.6
2017-Nov-15 14:30N 47°47' W 004°18'0 0.2
2017-Nov-15 12:06N 47°47' W 004°17'1 8.0
2017-Nov-15 11:57N 47°46' W 004°18'4 8.4
2017-Nov-15 11:30N 47°42' W 004°18'6 8.4
2017-Nov-15 10:50N 47°37' W 004°17'2 6.0
2017-Nov-15 10:29N 47°35' W 004°16'2 3.0
2017-Nov-15 09:56N 47°33' W 004°16'2 3.5
2017-Nov-15 09:21N 47°31' W 004°16'5 3.5
2017-Nov-15 07:52N 47°26' W 004°18'3 3.3
2017-Nov-15 06:57N 47°24' W 004°20'4 3.0
2017-Nov-15 05:40N 47°21' W 004°24'0 1.8
2017-Nov-15 05:28N 47°21' W 004°25'2 2.9
2017-Nov-15 04:48N 47°20' W 004°27'1 2.9
2017-Nov-15 04:30N 47°19' W 004°28'2 2.9
2017-Nov-15 03:46N 47°17' W 004°28'1 3.0
2017-Nov-15 03:29N 47°16' W 004°28'  
Track history (hours):
 
Tides and Currents Weather Stations Pressure Air Temp Water Temp Dewpoint Dewpoint Depression Visibility Wind Speed Wind Dir Waves Ship Positions

F/V Les Antilles

Last reported at 2017-Nov-24 00:11 UTC. Time now 2017-Nov-24 07:41 UTC.
Position N 47°26' W 004°17'.

Length 15 m.

MMSI: 228905000.

Date/timePositionNaut miles runAvg speedWind from/ knotsBaromVisibWave heightAir tempDewpointWater temp
2017-Nov-24 00:11N 47°26' W 004°17'16 1.3
2017-Nov-23 11:44N 47°41' W 004°10'5 5.7
2017-Nov-23 10:48N 47°46' W 004°09'4 8.5
2017-Nov-23 10:23N 47°50' W 004°09'1 1.9
2017-Nov-23 09:38N 47°50' W 004°10'0 0.0
2017-Nov-23 08:38N 47°50' W 004°10'0 0.0
2017-Nov-23 07:38N 47°50' W 004°10'0 0.0
2017-Nov-23 05:38N 47°50' W 004°10'0 0.0
2017-Nov-23 04:58N 47°50' W 004°10'  
2017-Nov-17 19:00N 47°50' W 004°09'7 8.0
2017-Nov-17 18:07N 47°43' W 004°09'1 8.5
2017-Nov-17 17:58N 47°42' W 004°09'20 3.3
2017-Nov-17 12:03N 47°22' W 004°11'0 3.4
2017-Nov-17 12:00N 47°22' W 004°11'11 1.9
2017-Nov-17 06:20N 47°16' W 004°23'2 3.3
2017-Nov-17 05:51N 47°17' W 004°21'1 3.2
2017-Nov-17 05:28N 47°18' W 004°22'2 3.3
2017-Nov-17 05:00N 47°19' W 004°23'2 3.5
2017-Nov-17 04:27N 47°21' W 004°22'2 3.2
2017-Nov-17 03:50N 47°21' W 004°19'1 3.1
2017-Nov-17 03:26N 47°20' W 004°18'1 2.9
2017-Nov-17 02:59N 47°19' W 004°19'2 3.1
2017-Nov-17 02:29N 47°17' W 004°20'2 2.5
2017-Nov-17 01:44N 47°16' W 004°22'2 3.2
2017-Nov-17 01:15N 47°15' W 004°24'2 3.2
2017-Nov-17 00:38N 47°14' W 004°25'0 3.3
2017-Nov-17 00:29N 47°13' W 004°26'2 3.3
2017-Nov-16 23:56N 47°13' W 004°29'2 3.3
2017-Nov-16 23:27N 47°11' W 004°30'12 1.6
2017-Nov-16 16:04N 47°06' W 004°45'1 3.3
2017-Nov-16 15:51N 47°07' W 004°46'5 1.0
2017-Nov-16 11:04N 47°07' W 004°39'4 0.7
2017-Nov-16 06:12N 47°07' W 004°45'1 3.6
2017-Nov-16 05:59N 47°06' W 004°45'1 2.4
2017-Nov-16 05:30N 47°07' W 004°43'2 3.8
2017-Nov-16 04:56N 47°09' W 004°41'2 3.5
2017-Nov-16 04:21N 47°10' W 004°39'4 3.4
2017-Nov-16 03:07N 47°10' W 004°33'1 2.9
2017-Nov-16 02:47N 47°09' W 004°33'2 2.6
2017-Nov-16 02:09N 47°08' W 004°31'1 3.4
2017-Nov-16 01:44N 47°09' W 004°30'1 3.4
2017-Nov-16 01:27N 47°10' W 004°30'1 2.7
2017-Nov-16 01:01N 47°10' W 004°32'1 2.3
2017-Nov-16 00:21N 47°10' W 004°30'2 2.7
2017-Nov-15 23:34N 47°08' W 004°32'1 2.9
2017-Nov-15 23:12N 47°09' W 004°33'5 3.0
2017-Nov-15 21:23N 47°13' W 004°27'1 2.7
2017-Nov-15 20:59N 47°14' W 004°27'1 2.8
2017-Nov-15 20:28N 47°15' W 004°28'2 3.3
2017-Nov-15 19:52N 47°17' W 004°28'0 0.7
2017-Nov-15 19:30N 47°17' W 004°28'2 3.1
2017-Nov-15 18:47N 47°19' W 004°27'1 3.4
2017-Nov-15 18:21N 47°21' W 004°26'5 3.7
2017-Nov-15 17:05N 47°24' W 004°22'2 8.8
2017-Nov-15 16:55N 47°26' W 004°21'4 8.9
2017-Nov-15 16:25N 47°30' W 004°21'4 9.1
2017-Nov-15 15:59N 47°34' W 004°20'4 8.9
2017-Nov-15 15:30N 47°39' W 004°19'5 8.8
2017-Nov-15 14:59N 47°43' W 004°18'4 8.6
2017-Nov-15 14:30N 47°47' W 004°18'0 0.2
2017-Nov-15 12:06N 47°47' W 004°17'1 8.0
2017-Nov-15 11:57N 47°46' W 004°18'4 8.4
2017-Nov-15 11:30N 47°42' W 004°18'6 8.4
2017-Nov-15 10:50N 47°37' W 004°17'2 6.0
2017-Nov-15 10:29N 47°35' W 004°16'2 3.0
2017-Nov-15 09:56N 47°33' W 004°16'2 3.5
2017-Nov-15 09:21N 47°31' W 004°16'5 3.5
2017-Nov-15 07:52N 47°26' W 004°18'3 3.3
2017-Nov-15 06:57N 47°24' W 004°20'4 3.0
2017-Nov-15 05:40N 47°21' W 004°24'0 1.8
2017-Nov-15 05:28N 47°21' W 004°25'2 2.9
2017-Nov-15 04:48N 47°20' W 004°27'1 2.9
2017-Nov-15 04:30N 47°19' W 004°28'2 2.9
2017-Nov-15 03:46N 47°17' W 004°28'1 3.0
2017-Nov-15 03:29N 47°16' W 004°28'  

Dump ship's entire track history